Time;durP1;ratioP1;P1;durP2;ratioP2;P2;SDS_P1;SDS_P2;PMS_P1;PMS_P2;Temp;Humidity;BMP_temperature;BMP_pressure;BME280_temperature;BME280_humidity;BME280_pressure;Samples;Min_cycle;Max_cycle;Signal;HPM_P1;HPM_P2
2021/03/01 00:00:00;;;;;;;4.32;3.10;;;;;;;23.44;35.71;95992.94;5034505;28;20029;-73
2021/03/01 00:02:26;;;;;;;3.30;2.55;;;;;;;23.29;36.05;95975.22;5034440;28;20021;-72
2021/03/01 00:04:51;;;;;;;4.53;2.85;;;;;;;23.37;35.95;95993.38;5030192;28;20065;-72
2021/03/01 00:07:17;;;;;;;3.97;2.65;;;;;;;23.33;36.07;95987.41;5034522;28;20049;-72
2021/03/01 00:09:42;;;;;;;3.70;2.45;;;;;;;22.84;36.00;95912.69;5034272;28;20483;-73
2021/03/01 00:12:09;;;;;;;4.00;2.25;;;;;;;23.29;36.01;95984.16;5033112;28;20083;-72
2021/03/01 00:14:34;;;;;;;3.70;2.55;;;;;;;23.26;35.91;95987.88;5034407;28;20021;-72
2021/03/01 00:17:00;;;;;;;4.28;2.70;;;;;;;23.18;35.94;95975.91;5034172;28;20036;-73
2021/03/01 00:19:26;;;;;;;4.25;2.83;;;;;;;23.22;36.13;95992.78;5034491;28;20066;-72
2021/03/01 00:21:51;;;;;;;3.53;2.55;;;;;;;23.18;35.79;95986.78;5016502;28;20027;-72
2021/03/01 00:24:17;;;;;;;3.13;2.30;;;;;;;22.72;36.07;95927.47;5043120;28;20513;-73
2021/03/01 00:26:42;;;;;;;3.40;2.45;;;;;;;23.01;36.29;95966.84;5052987;28;20025;-73
2021/03/01 00:29:08;;;;;;;3.85;2.60;;;;;;;23.13;36.32;95973.88;5054078;28;20033;-72
2021/03/01 00:31:33;;;;;;;3.88;2.30;;;;;;;23.03;36.26;95969.88;5054214;28;20017;-72
2021/03/01 00:33:58;;;;;;;4.18;2.70;;;;;;;22.30;36.28;95853.88;5053882;28;20028;-73
2021/03/01 00:36:24;;;;;;;3.75;2.55;;;;;;;22.88;36.05;95935.03;5053145;28;20024;-72
2021/03/01 00:38:49;;;;;;;3.25;2.55;;;;;;;22.88;36.08;95943.19;5054057;28;20024;-73
2021/03/01 00:41:15;;;;;;;3.28;2.40;;;;;;;23.00;36.14;95970.81;5053644;28;20017;-72
2021/03/01 00:43:40;;;;;;;4.10;2.53;;;;;;;22.94;36.40;95956.41;5053773;28;20051;-72
2021/03/01 00:46:06;;;;;;;4.75;2.63;;;;;;;22.97;36.30;95960.91;5052269;28;20020;-73
2021/03/01 00:48:31;;;;;;;3.47;2.78;;;;;;;22.96;36.30;95953.94;5036070;28;20025;-73
2021/03/01 00:50:56;;;;;;;4.00;2.80;;;;;;;22.81;36.24;95938.19;5032177;28;20029;-73
2021/03/01 00:53:26;;;;;;;3.20;2.25;;;;;;;22.74;36.45;95922.31;5033761;28;20083;-73
2021/03/01 00:55:51;;;;;;;3.88;2.60;;;;;;;22.91;36.27;95948.41;5033217;28;20033;-72
2021/03/01 00:58:17;;;;;;;3.65;2.58;;;;;;;22.86;36.50;95949.13;5033405;28;20029;-73
2021/03/01 01:03:18;;;;;;;3.95;2.58;;;;;;;22.75;36.48;95926.50;5102465;22;20062;-79
2021/03/01 01:05:44;;;;;;;4.32;2.60;;;;;;;22.31;36.37;95860.78;5031602;28;20029;-80
2021/03/01 01:08:09;;;;;;;3.40;2.60;;;;;;;22.22;36.61;95847.34;5016008;28;20532;-80
2021/03/01 01:10:35;;;;;;;3.47;2.53;;;;;;;22.79;36.39;95937.94;5016286;28;20032;-80
2021/03/01 01:13:01;;;;;;;3.55;2.55;;;;;;;22.78;36.26;95930.97;5032168;28;20035;-82
2021/03/01 01:15:26;;;;;;;3.42;2.47;;;;;;;22.76;36.23;95933.44;5034147;28;20029;-82
2021/03/01 01:17:52;;;;;;;3.78;2.40;;;;;;;22.70;36.46;95925.22;5034238;28;20541;-81
2021/03/01 01:20:17;;;;;;;3.80;2.72;;;;;;;22.72;36.47;95927.47;5033603;28;20429;-80
2021/03/01 01:22:44;;;;;;;3.25;2.30;;;;;;;22.71;36.29;95920.53;5033592;28;20448;-80
2021/03/01 01:25:11;;;;;;;4.25;2.60;;;;;;;22.07;36.48;95830.38;5032819;28;20033;-80
2021/03/01 01:27:36;;;;;;;3.53;2.70;;;;;;;22.70;36.51;95919.03;5032014;28;20032;-80
2021/03/01 01:30:07;;;;;;;2.88;2.20;;;;;;;22.67;36.64;95918.03;5032947;28;20021;-80
2021/03/01 01:32:33;;;;;;;3.83;2.67;;;;;;;22.68;36.60;95918.78;5031319;28;20072;-80
2021/03/01 01:34:58;;;;;;;4.47;2.90;;;;;;;22.64;36.43;95920.97;5031362;28;20028;-80
2021/03/01 01:37:24;;;;;;;3.42;2.40;;;;;;;22.64;36.61;95920.97;5031122;28;20420;-79
2021/03/01 01:39:49;;;;;;;3.90;2.30;;;;;;;22.64;36.59;95920.97;5031168;28;20033;-79
2021/03/01 01:42:15;;;;;;;3.30;2.30;;;;;;;22.52;36.58;95892.16;5032411;28;20044;-79
2021/03/01 01:44:40;;;;;;;4.50;2.80;;;;;;;22.60;36.52;95912.25;5031349;28;20109;-81
2021/03/01 01:47:06;;;;;;;3.33;2.30;;;;;;;22.31;36.55;95870.94;5031780;28;20407;-81
2021/03/01 01:49:31;;;;;;;3.38;2.28;;;;;;;22.41;36.77;95897.50;5032669;28;20406;-81
2021/03/01 01:51:56;;;;;;;3.83;2.47;;;;;;;22.55;36.56;95919.16;5032079;28;20026;-82
2021/03/01 01:54:22;;;;;;;3.67;2.28;;;;;;;21.98;36.58;95833.25;5032413;28;20512;-81
2021/03/01 01:56:48;;;;;;;3.67;2.63;;;;;;;21.94;36.50;95821.88;5031034;28;20494;-81
2021/03/01 01:59:14;;;;;;;4.45;2.58;;;;;;;22.35;36.73;95888.53;5030590;28;20013;-81
2021/03/01 02:01:39;;;;;;;4.25;2.50;;;;;;;22.51;36.72;95917.88;5030213;28;20022;-81
2021/03/01 02:04:26;;;;;;;3.70;2.72;;;;;;;22.47;36.88;95906.47;5030655;28;20071;-81
2021/03/01 02:07:08;;;;;;;3.42;2.30;;;;;;;21.89;36.54;95818.34;5030757;28;20033;-80
2021/03/01 02:10:07;;;;;;;3.80;2.55;;;;;;;22.46;36.55;95910.41;5031079;28;20060;-81
2021/03/01 02:13:14;;;;;;;3.97;2.60;;;;;;;22.44;36.88;95923.75;5030944;28;20029;-81
2021/03/01 02:15:45;;;;;;;3.50;2.28;;;;;;;22.40;36.66;95908.88;5031199;28;20599;-80
2021/03/01 02:18:10;;;;;;;3.33;2.40;;;;;;;22.42;36.84;95915.34;5032201;28;20040;-80
2021/03/01 02:20:45;;;;;;;3.83;2.88;;;;;;;21.74;36.61;95817.69;5032162;28;20025;-81
2021/03/01 02:23:11;;;;;;;3.95;2.70;;;;;;;22.23;36.60;95881.50;5031257;28;20033;-81
2021/03/01 02:25:39;;;;;;;3.05;2.08;;;;;;;22.40;36.79;95912.34;5030693;28;20147;-80
2021/03/01 02:28:08;;;;;;;3.65;2.38;;;;;;;22.39;36.88;95910.09;5014492;28;20417;-80
2021/03/01 02:30:36;;;;;;;3.97;2.58;;;;;;;22.38;36.57;95909.34;5030552;28;20035;-81
2021/03/01 02:33:21;;;;;;;3.60;2.58;;;;;;;21.48;36.60;95776.16;5015092;28;20082;-81
2021/03/01 02:35:51;;;;;;;3.50;2.40;;;;;;;21.27;36.72;95742.06;5030967;28;20036;-83
2021/03/01 02:38:18;;;;;;;3.72;2.40;;;;;;;21.88;36.63;95833.88;5030589;28;20025;-83
2021/03/01 02:40:43;;;;;;;3.40;2.30;;;;;;;22.32;36.86;95894.94;5014078;28;20013;-81
2021/03/01 02:43:08;;;;;;;3.90;2.60;;;;;;;22.24;36.82;95883.00;5014047;28;20099;-80
2021/03/01 02:45:34;;;;;;;3.15;2.25;;;;;;;22.34;37.00;95892.50;5030733;28;20025;-81
2021/03/01 02:48:00;;;;;;;4.00;2.63;;;;;;;22.32;36.64;95889.50;5028866;28;20033;-81
2021/03/01 02:50:26;;;;;;;3.72;2.33;;;;;;;22.31;36.84;95898.88;5030318;28;20029;-81
2021/03/01 02:52:51;;;;;;;3.67;2.55;;;;;;;22.24;36.88;95888.44;5029952;28;20036;-80
2021/03/01 02:55:16;;;;;;;3.42;2.20;;;;;;;22.30;36.85;95891.97;5030246;28;20493;-81
2021/03/01 02:57:42;;;;;;;3.20;2.13;;;;;;;22.18;36.96;95871.31;5030198;28;20520;-81
2021/03/01 03:00:09;;;;;;;2.83;2.20;;;;;;;22.13;36.48;95866.53;5031634;28;20103;-80
2021/03/01 03:02:35;;;;;;;2.72;2.38;;;;;;;21.83;37.08;95825.69;5031380;28;20045;-81
2021/03/01 03:05:00;;;;;;;3.20;2.42;;;;;;;22.24;36.86;95896.63;5029900;28;20034;-80
2021/03/01 03:07:26;;;;;;;3.00;2.35;;;;;;;22.25;36.76;95898.09;5030936;28;20026;-81
2021/03/01 03:09:51;;;;;;;3.92;2.40;;;;;;;21.81;36.76;95833.56;5030458;28;20509;-81
2021/03/01 03:12:17;;;;;;;2.58;2.00;;;;;;;22.24;36.81;95899.34;5030017;28;20021;-81
2021/03/01 03:14:42;;;;;;;3.78;2.33;;;;;;;21.69;36.61;95813.69;5030054;28;20026;-81
2021/03/01 03:17:08;;;;;;;3.42;3.13;;;;;;;21.77;36.86;95827.63;5029570;28;20025;-81
2021/03/01 03:19:33;;;;;;;3.38;2.25;;;;;;;21.75;36.61;95819.16;5029715;28;20040;-80
2021/03/01 03:21:59;;;;;;;3.80;2.40;;;;;;;22.19;36.62;95891.81;5046339;28;20103;-81
2021/03/01 03:24:25;;;;;;;3.28;2.22;;;;;;;22.07;36.87;95881.31;5031532;28;20420;-81
2021/03/01 03:26:50;;;;;;;3.78;2.40;;;;;;;22.01;36.98;95854.06;5030755;28;20036;-81
2021/03/01 03:29:15;;;;;;;3.03;2.08;;;;;;;22.18;36.93;95884.13;5030685;28;20036;-80
2021/03/01 03:31:41;;;;;;;3.10;2.30;;;;;;;22.17;36.66;95888.84;5030913;28;20029;-81
2021/03/01 03:34:06;;;;;;;3.30;2.22;;;;;;;22.17;36.89;95883.41;5029552;28;20022;-80
2021/03/01 03:36:33;;;;;;;3.72;2.30;;;;;;;22.08;36.77;95880.84;5029771;28;20397;-81
2021/03/01 03:39:13;;;;;;;3.28;2.03;;;;;;;22.14;36.76;95892.53;5046060;28;20029;-81
2021/03/01 03:41:39;;;;;;;;;;;;;;;22.10;36.90;95889.25;5031237;28;20493;-81
2021/03/01 03:44:05;;;;;;;3.43;2.23;;;;;;;22.09;36.94;95887.78;5029564;28;19975;-81
2021/03/01 03:46:30;;;;;;;2.40;1.88;;;;;;;22.10;36.95;95889.25;5029311;28;20792;-81
2021/03/01 03:48:56;;;;;;;3.17;2.25;;;;;;;21.89;36.81;95856.41;5019835;28;20029;-81
2021/03/01 03:51:24;;;;;;;3.95;2.13;;;;;;;22.11;37.02;95890.75;5029859;28;20045;-81
2021/03/01 03:53:50;;;;;;;2.88;2.17;;;;;;;22.17;36.87;95888.09;5029634;28;20108;-80
2021/03/01 03:56:17;;;;;;;2.70;2.15;;;;;;;22.19;36.91;95886.38;5012989;28;20635;-80
2021/03/01 03:58:46;;;;;;;2.95;2.10;;;;;;;22.11;37.19;95862.81;5029840;28;20048;-81
2021/03/01 04:01:13;;;;;;;2.55;1.90;;;;;;;22.23;36.99;95881.50;5012302;28;20021;-81
2021/03/01 04:03:39;;;;;;;2.72;2.13;;;;;;;21.91;36.87;95826.75;5029279;28;20499;-81
2021/03/01 04:06:04;;;;;;;3.30;2.00;;;;;;;22.27;36.90;95876.59;5033248;28;20025;-82
2021/03/01 04:08:30;;;;;;;4.05;2.28;;;;;;;22.31;36.86;95882.56;5030695;28;20043;-81
2021/03/01 04:10:55;;;;;;;3.08;2.15;;;;;;;22.32;36.99;95878.63;5012475;28;20457;-81
2021/03/01 04:13:22;;;;;;;3.45;2.10;;;;;;;22.35;36.81;95890.53;5029439;28;20029;-80
2021/03/01 04:15:48;;;;;;;2.67;2.10;;;;;;;21.92;36.63;95818.13;5013232;28;20063;-80
2021/03/01 04:18:24;;;;;;;2.38;1.75;;;;;;;21.82;36.69;95802.44;5013350;28;20025;-80
2021/03/01 04:20:50;;;;;;;2.83;2.00;;;;;;;22.39;36.83;95885.59;5029308;28;20030;-82
2021/03/01 04:23:16;;;;;;;3.03;1.95;;;;;;;22.35;36.74;95885.81;5029094;28;20140;-81
2021/03/01 04:25:43;;;;;;;2.75;2.00;;;;;;;22.42;36.71;95893.56;5029252;28;20084;-79
2021/03/01 04:28:08;;;;;;;2.92;1.90;;;;;;;22.44;36.72;95891.09;5012956;28;20029;-81
2021/03/01 04:30:33;;;;;;;3.10;2.25;;;;;;;22.45;36.95;95887.13;5029378;28;20062;-81
2021/03/01 04:32:59;;;;;;;2.63;1.83;;;;;;;22.46;37.00;95894.09;5030013;28;20021;-81
2021/03/01 04:35:25;;;;;;;3.17;2.15;;;;;;;22.50;36.76;95889.19;5029020;28;20045;-81
2021/03/01 04:37:50;;;;;;;2.63;1.85;;;;;;;22.51;36.69;95890.66;5015731;28;20029;-81
2021/03/01 04:40:16;;;;;;;3.17;2.28;;;;;;;22.51;36.62;95885.22;5032776;28;20032;-80
2021/03/01 04:42:43;;;;;;;2.97;2.05;;;;;;;22.51;36.58;95885.22;5031604;28;20021;-79
2021/03/01 04:45:10;;;;;;;2.85;1.90;;;;;;;22.31;36.57;95847.19;5030878;28;20366;-81
2021/03/01 04:47:35;;;;;;;3.28;2.28;;;;;;;22.58;36.44;95884.78;5033341;28;20025;-81
2021/03/01 04:50:01;;;;;;;2.35;1.80;;;;;;;22.44;36.05;95859.19;5032691;28;20024;-74
2021/03/01 04:52:26;;;;;;;2.85;1.95;;;;;;;22.64;36.57;95877.41;5022102;28;20022;-76
2021/03/01 04:54:52;;;;;;;2.72;1.90;;;;;;;22.21;36.17;95807.78;5008453;28;20033;-75
2021/03/01 04:57:19;;;;;;;2.60;1.80;;;;;;;22.26;36.00;95826.13;5020554;28;20040;-81
2021/03/01 04:59:44;;;;;;;3.55;2.40;;;;;;;22.71;36.22;95882.41;5023930;28;20032;-81
2021/03/01 05:02:10;;;;;;;2.63;2.00;;;;;;;22.72;35.89;95883.91;5020632;28;20025;-84
2021/03/01 05:04:36;;;;;;;2.60;2.00;;;;;;;22.72;36.25;95883.91;5008181;28;20040;-79
2021/03/01 05:07:02;;;;;;;3.08;1.95;;;;;;;22.73;36.16;95886.13;5013939;28;20468;-82
2021/03/01 05:09:27;;;;;;;3.03;2.00;;;;;;;22.62;35.99;95871.72;5037671;28;20469;-81
2021/03/01 05:11:53;;;;;;;3.05;1.92;;;;;;;22.65;36.14;95873.47;5004951;28;20026;-79
2021/03/01 05:14:18;;;;;;;4.25;2.30;;;;;;;22.57;36.29;95872.38;5025199;28;20030;-84
2021/03/01 05:16:44;;;;;;;3.50;2.17;;;;;;;22.77;36.23;95897.56;5023434;28;20079;-77
2021/03/01 05:19:09;;;;;;;3.33;2.25;;;;;;;22.76;36.64;95906.22;5032343;28;20029;-82
2021/03/01 05:21:35;;;;;;;6.15;1.80;;;;;;;22.76;36.58;95900.78;5027390;28;20028;-80
2021/03/01 05:24:00;;;;;;;3.28;1.80;;;;;;;22.78;36.41;95898.31;5033802;28;20048;-81
2021/03/01 05:26:27;;;;;;;4.50;2.05;;;;;;;22.36;36.43;95841.06;5029964;28;20071;-79
2021/03/01 05:28:52;;;;;;;2.83;1.95;;;;;;;22.26;36.28;95825.41;5029188;28;20017;-80
2021/03/01 05:31:18;;;;;;;2.53;1.85;;;;;;;22.33;36.32;95842.03;5030523;28;20051;-83
2021/03/01 05:33:45;;;;;;;3.33;2.25;;;;;;;22.75;36.61;95899.25;5029096;28;20099;-78
2021/03/01 05:36:10;;;;;;;3.80;2.17;;;;;;;22.89;36.30;95916.22;5031675;28;20067;-78
2021/03/01 05:38:36;;;;;;;2.58;1.80;;;;;;;22.95;36.16;95919.75;5031904;28;20029;-77
2021/03/01 05:41:02;;;;;;;4.28;1.85;;;;;;;22.90;36.14;95906.81;5031369;28;20026;-76
2021/03/01 05:43:28;;;;;;;5.43;2.00;;;;;;;23.00;36.08;95910.91;5031645;28;20072;-79
2021/03/01 05:45:54;;;;;;;4.30;2.08;;;;;;;23.15;35.82;95930.56;5028414;28;20520;-76
2021/03/01 05:48:22;;;;;;;3.55;2.00;;;;;;;23.02;35.74;95894.81;5031003;28;20192;-78
2021/03/01 05:50:56;;;;;;;4.53;2.30;;;;;;;22.88;35.65;95858.78;5014481;28;20116;-78
2021/03/01 05:53:25;;;;;;;4.75;2.20;;;;;;;23.37;35.75;95917.06;5030588;28;20041;-78
2021/03/01 05:55:50;;;;;;;3.07;1.70;;;;;;;23.46;35.17;95919.59;5029472;28;20026;-79
2021/03/01 05:58:16;;;;;;;4.45;1.60;;;;;;;23.55;35.40;95917.41;5008436;28;20087;-80
2021/03/01 06:00:42;;;;;;;3.33;1.65;;;;;;;23.64;35.20;95913.75;5031204;28;20049;-79
2021/03/01 06:03:07;;;;;;;4.57;2.08;;;;;;;23.73;34.68;95913.56;5029574;28;20498;-78
2021/03/01 06:05:33;;;;;;;3.63;2.10;;;;;;;23.81;34.40;95920.03;5021626;28;20121;-80
2021/03/01 06:07:58;;;;;;;4.80;2.15;;;;;;;23.38;34.60;95836.78;5029509;28;20013;-79
2021/03/01 06:10:24;;;;;;;3.83;1.95;;;;;;;23.89;34.31;95898.00;5031128;28;20056;-79
2021/03/01 06:12:50;;;;;;;3.83;1.92;;;;;;;23.52;34.44;95830.41;5032693;28;20037;-79
2021/03/01 06:15:16;;;;;;;3.17;2.10;;;;;;;24.01;34.01;95883.16;5030833;28;20111;-79
2021/03/01 06:17:57;;;;;;;3.58;1.83;;;;;;;24.19;33.64;95899.06;5031248;28;20037;-80
2021/03/01 06:20:23;;;;;;;3.80;1.88;;;;;;;24.26;33.80;95893.13;5031172;28;20036;-79
2021/03/01 06:22:48;;;;;;;2.88;1.85;;;;;;;23.89;33.71;95824.34;5031602;28;20029;-79
2021/03/01 06:25:15;;;;;;;3.25;1.85;;;;;;;24.40;33.46;95886.72;5016534;28;20032;-80
2021/03/01 06:27:56;;;;;;;4.45;2.15;;;;;;;24.47;33.03;95872.59;5031535;28;20034;-79
2021/03/01 06:30:51;;;;;;;3.80;1.75;;;;;;;24.45;33.16;95866.88;5030500;28;20112;-79
2021/03/01 06:33:18;;;;;;;3.60;1.77;;;;;;;23.71;33.32;95738.78;5025727;28;20810;-80
2021/03/01 06:35:50;;;;;;;2.35;1.67;;;;;;;24.64;33.14;95871.34;5013486;28;20028;-80
2021/03/01 06:38:27;;;;;;;7.80;2.20;;;;;;;24.26;32.93;95811.25;5025734;28;20031;-78
2021/03/01 06:41:11;;;;;;;6.30;2.38;;;;;;;24.26;32.62;95794.88;5028906;28;20018;-80
2021/03/01 06:43:38;;;;;;;6.03;1.88;;;;;;;24.37;32.72;95805.81;5034137;28;20021;-87
2021/03/01 06:46:16;;;;;;;6.82;2.35;;;;;;;24.88;32.56;95883.25;5018990;28;20064;-86
2021/03/01 06:48:42;;;;;;;7.78;2.33;;;;;;;24.96;32.67;95883.50;5014463;28;20025;-78
2021/03/01 06:51:08;;;;;;;5.97;1.98;;;;;;;24.97;32.93;95885.00;5030817;28;20033;-79
2021/03/01 06:53:33;;;;;;;7.72;2.92;;;;;;;24.98;31.93;95881.03;5026254;28;20021;-76
2021/03/01 06:56:12;;;;;;;5.93;3.78;;;;;;;24.98;30.87;95887.22;5030296;28;20025;-80
2021/03/01 06:58:39;;;;;;;6.90;3.70;;;;;;;24.46;30.92;95819.22;5025972;28;20096;-80
2021/03/01 07:01:09;;;;;;;5.88;2.53;;;;;;;25.03;32.04;95900.16;5011458;28;20052;-84
2021/03/01 07:03:35;;;;;;;4.38;2.53;;;;;;;24.25;32.01;95782.47;5027516;28;20049;-81
2021/03/01 07:06:01;;;;;;;5.90;2.10;;;;;;;25.15;32.17;95906.38;5027990;28;20044;-77
2021/03/01 07:08:34;;;;;;;5.25;2.42;;;;;;;25.18;31.96;95903.38;5030068;28;20029;-78
2021/03/01 07:11:00;;;;;;;3.90;2.10;;;;;;;25.23;32.07;95908.09;5023561;28;20055;-77
2021/03/01 07:13:29;;;;;;;4.13;1.90;;;;;;;25.17;31.83;95899.16;5028973;28;20108;-78
2021/03/01 07:15:55;;;;;;;6.37;2.70;;;;;;;25.04;31.97;95879.78;5031421;28;20093;-88
2021/03/01 07:18:20;;;;;;;5.88;2.25;;;;;;;25.28;32.19;95923.00;5009412;28;20870;-76
2021/03/01 07:20:47;;;;;;;7.28;2.65;;;;;;;24.95;31.94;95860.16;5042997;28;20453;-82
2021/03/01 07:23:13;;;;;;;4.13;2.20;;;;;;;24.90;31.87;95853.47;5026066;28;20037;-81
2021/03/01 07:25:38;;;;;;;5.55;1.88;;;;;;;25.24;32.14;95882.25;5007463;28;20026;-79
2021/03/01 07:28:04;;;;;;;4.57;2.10;;;;;;;25.45;31.51;95921.72;5011245;28;20517;-74
2021/03/01 07:30:30;;;;;;;3.45;2.30;;;;;;;25.49;31.65;95924.94;5026038;28;20048;-75
2021/03/01 07:32:56;;;;;;;4.00;2.42;;;;;;;25.53;31.57;95914.47;5002178;28;20026;-75
2021/03/01 07:35:21;;;;;;;5.55;3.42;;;;;;;25.38;30.59;95935.88;4991613;28;20040;-78
2021/03/01 07:37:47;;;;;;;5.13;2.45;;;;;;;25.47;31.04;95921.94;5027074;28;20025;-80
2021/03/01 07:40:14;;;;;;;4.90;2.65;;;;;;;25.08;30.92;95863.91;5028544;28;20044;-78
2021/03/01 07:42:42;;;;;;;5.32;2.45;;;;;;;24.94;31.29;95853.94;5007360;28;20083;-78
2021/03/01 07:45:08;;;;;;;3.38;2.30;;;;;;;25.04;31.64;95862.66;5013925;28;20017;-79
2021/03/01 07:47:33;;;;;;;5.35;2.58;;;;;;;25.42;31.15;95925.44;5022455;28;20075;-79
2021/03/01 07:49:59;;;;;;;4.75;2.67;;;;;;;25.50;31.41;95934.63;5028954;28;20490;-78
2021/03/01 07:52:27;;;;;;;4.53;2.40;;;;;;;25.46;31.18;95936.88;5026922;28;20014;-78
2021/03/01 07:55:05;;;;;;;3.38;2.15;;;;;;;25.45;31.55;95929.91;5030595;28;20029;-79
2021/03/01 07:57:31;;;;;;;3.15;2.30;;;;;;;25.41;31.58;95938.38;5030105;28;20029;-78
2021/03/01 07:59:57;;;;;;;4.57;2.30;;;;;;;25.37;31.77;95918.00;5016852;28;20040;-78
2021/03/01 08:02:28;;;;;;;4.15;2.28;;;;;;;25.31;31.73;95928.22;5027368;28;20430;-79
2021/03/01 08:04:54;;;;;;;6.43;3.17;;;;;;;25.29;31.86;95917.03;5025509;28;20030;-76
2021/03/01 08:07:36;;;;;;;3.67;2.45;;;;;;;25.25;31.76;95922.00;5023537;28;20087;-75
2021/03/01 08:10:01;;;;;;;4.00;2.60;;;;;;;25.15;31.61;95912.56;5027042;28;20075;-76
2021/03/01 08:12:36;;;;;;;4.53;2.50;;;;;;;25.13;31.74;95922.53;5030267;28;20531;-75
2021/03/01 08:15:09;;;;;;;3.97;2.30;;;;;;;25.04;31.67;95923.53;5027905;28;20501;-75
2021/03/01 08:17:36;;;;;;;4.50;2.42;;;;;;;24.95;31.78;95936.69;5033276;28;20025;-75
2021/03/01 08:20:04;;;;;;;3.85;2.55;;;;;;;24.87;31.99;95925.50;5029013;28;20498;-75
2021/03/01 08:22:30;;;;;;;4.13;2.40;;;;;;;24.43;32.07;95855.72;5031987;28;20490;-75
2021/03/01 08:24:56;;;;;;;4.22;2.53;;;;;;;24.66;32.04;95914.56;5014234;28;20033;-75
2021/03/01 08:27:27;;;;;;;4.85;2.35;;;;;;;24.68;31.89;95922.97;5014146;28;20048;-76
2021/03/01 08:30:21;;;;;;;4.38;2.70;;;;;;;24.63;32.39;95921.00;5032845;28;20025;-76
2021/03/01 08:33:08;;;;;;;5.75;2.70;;;;;;;24.58;32.09;95916.28;5028899;28;20068;-76
2021/03/01 08:35:34;;;;;;;5.93;2.78;;;;;;;24.27;31.96;95870.03;5027702;28;20040;-75
2021/03/01 08:37:59;;;;;;;4.75;2.58;;;;;;;24.05;32.32;95845.47;5028671;28;20040;-76
2021/03/01 08:40:25;;;;;;;4.05;2.38;;;;;;;24.27;32.21;95905.53;5008258;28;20044;-77
2021/03/01 08:42:55;;;;;;;3.95;2.60;;;;;;;24.35;32.75;95920.25;5031215;28;20043;-77
2021/03/01 08:45:22;;;;;;;4.25;2.40;;;;;;;24.20;32.29;95886.94;5030309;28;20124;-77
2021/03/01 08:47:49;;;;;;;4.07;2.50;;;;;;;24.24;32.65;95901.06;5030358;28;20381;-78
2021/03/01 08:50:15;;;;;;;5.57;2.63;;;;;;;24.01;32.42;95888.59;5027388;28;20549;-76
2021/03/01 08:52:49;;;;;;;3.80;2.30;;;;;;;23.96;32.59;95886.63;5028309;28;20031;-76
2021/03/01 08:55:16;;;;;;;7.68;2.50;;;;;;;23.73;32.92;95857.03;5008529;28;20056;-76
2021/03/01 08:58:01;;;;;;;7.20;2.60;;;;;;;24.05;32.83;95910.94;5012865;28;20037;-76
2021/03/01 09:00:28;;;;;;;10.05;2.88;;;;;;;23.93;33.13;95890.31;5030529;28;20032;-77
2021/03/01 09:03:18;;;;;;;6.13;2.70;;;;;;;23.57;33.02;95833.16;5027102;28;20052;-76
2021/03/01 09:05:46;;;;;;;12.15;3.33;;;;;;;23.37;33.04;95808.03;5030404;28;20104;-76
2021/03/01 09:08:11;;;;;;;12.88;2.95;;;;;;;23.79;32.85;95876.88;5030261;28;20513;-76
2021/03/01 09:10:42;;;;;;;12.00;3.28;;;;;;;23.32;32.97;95808.78;5023121;28;20032;-75
2021/03/01 09:13:09;;;;;;;9.32;2.97;;;;;;;23.47;33.44;95833.84;5029883;28;20022;-76
2021/03/01 09:15:35;;;;;;;9.73;3.40;;;;;;;23.22;33.13;95807.47;5027760;28;20067;-76
2021/03/01 09:18:03;;;;;;;6.20;2.75;;;;;;;23.67;33.33;95871.88;5029883;28;20100;-76
2021/03/01 09:20:28;;;;;;;9.05;3.00;;;;;;;23.75;33.50;95891.97;5032155;28;20468;-76
2021/03/01 09:22:54;;;;;;;12.68;3.20;;;;;;;23.72;33.41;95887.50;5012907;28;20029;-76
2021/03/01 09:25:29;;;;;;;8.70;3.00;;;;;;;23.75;33.26;95891.97;5031157;28;20029;-76
2021/03/01 09:27:55;;;;;;;11.55;3.50;;;;;;;23.71;33.60;95902.41;5024362;28;20100;-77
2021/03/01 09:30:23;;;;;;;11.15;4.05;;;;;;;23.21;33.49;95821.59;5026510;28;20033;-78
2021/03/01 09:33:05;;;;;;;10.95;3.50;;;;;;;23.69;33.18;95893.94;5030951;28;20032;-78
2021/03/01 09:35:33;;;;;;;12.35;3.25;;;;;;;23.70;33.84;95892.72;5026786;28;20126;-79
2021/03/01 09:38:00;;;;;;;9.77;3.10;;;;;;;23.71;34.27;95891.50;5030066;28;20048;-76
2021/03/01 09:40:26;;;;;;;12.13;3.60;;;;;;;23.68;33.92;95887.03;5021219;28;20026;-75
2021/03/01 09:42:53;;;;;;;13.20;2.90;;;;;;;23.22;34.16;95823.81;5029905;28;20053;-76
2021/03/01 09:45:19;;;;;;;11.13;3.63;;;;;;;23.03;33.73;95795.50;5012437;28;20028;-76
2021/03/01 09:47:46;;;;;;;10.13;3.63;;;;;;;23.64;34.24;95891.94;5027391;28;20025;-75
2021/03/01 09:50:12;;;;;;;11.55;3.17;;;;;;;23.52;33.91;95876.75;5012914;28;20050;-75
2021/03/01 09:52:39;;;;;;;10.63;4.13;;;;;;;23.58;33.99;95896.59;5029764;28;20026;-76
2021/03/01 09:55:04;;;;;;;10.45;3.47;;;;;;;23.57;34.25;95900.56;5028013;28;20027;-75
2021/03/01 09:57:30;;;;;;;12.48;3.65;;;;;;;22.94;34.21;95824.91;5010660;28;20025;-75
2021/03/01 09:59:55;;;;;;;10.65;3.50;;;;;;;23.53;34.29;95897.34;5027352;28;20020;-75
2021/03/01 10:02:24;;;;;;;13.48;3.72;;;;;;;23.53;34.32;95897.34;5029167;28;20022;-76
2021/03/01 10:04:53;;;;;;;11.43;3.63;;;;;;;23.41;34.29;95873.97;5019927;28;20045;-76
2021/03/01 10:07:26;;;;;;;11.52;3.58;;;;;;;23.54;34.11;95896.06;5025293;28;20052;-76
2021/03/01 10:09:52;;;;;;;12.70;3.45;;;;;;;23.51;34.00;95888.88;5028821;28;20464;-76
2021/03/01 10:12:18;;;;;;;12.77;3.35;;;;;;;23.51;34.38;95894.34;5030123;28;20048;-76
2021/03/01 10:14:44;;;;;;;10.48;3.38;;;;;;;23.54;33.98;95887.91;5029380;28;20478;-75
2021/03/01 10:17:28;;;;;;;9.55;2.95;;;;;;;23.59;34.33;95889.94;5028790;28;20414;-74
2021/03/01 10:19:54;;;;;;;6.78;3.45;;;;;;;23.61;34.18;95888.19;5027612;28;20028;-76
2021/03/01 10:22:19;;;;;;;9.57;3.30;;;;;;;23.62;34.27;95888.94;5029008;28;20492;-75
2021/03/01 10:24:46;;;;;;;10.70;3.28;;;;;;;23.22;33.98;95829.28;5026938;28;20017;-74
2021/03/01 10:27:11;;;;;;;6.97;2.85;;;;;;;23.56;34.00;95880.00;5029505;28;20040;-76
2021/03/01 10:29:41;;;;;;;10.85;4.13;;;;;;;22.75;34.13;95752.22;5029653;28;20026;-76
2021/03/01 10:32:27;;;;;;;7.75;3.15;;;;;;;23.64;34.54;95881.03;5027805;28;20021;-75
2021/03/01 10:34:53;;;;;;;8.60;3.03;;;;;;;23.67;33.80;95874.59;5031175;28;20426;-76
2021/03/01 10:37:23;;;;;;;9.60;3.70;;;;;;;23.61;34.63;95860.19;5025048;28;20475;-75
2021/03/01 10:39:48;;;;;;;8.87;3.00;;;;;;;23.73;34.68;95867.19;5024444;28;20025;-75
2021/03/01 10:42:18;;;;;;;7.13;2.95;;;;;;;23.77;34.21;95862.25;5023534;28;20025;-74
2021/03/01 10:44:59;;;;;;;5.90;2.70;;;;;;;22.83;34.18;95705.00;5025542;28;20501;-75
2021/03/01 10:47:26;;;;;;;8.70;3.00;;;;;;;23.63;34.20;95824.97;4970831;28;20044;-78
2021/03/01 10:49:53;;;;;;;8.80;3.53;;;;;;;23.90;34.44;95861.31;5034996;28;20083;-77
2021/03/01 10:52:19;;;;;;;8.70;3.08;;;;;;;23.98;34.21;95856.13;5033344;28;20851;-78
2021/03/01 10:54:44;;;;;;;9.18;3.35;;;;;;;23.88;34.23;95822.88;5030906;28;20033;-79
2021/03/01 10:57:10;;;;;;;8.35;3.05;;;;;;;24.18;34.76;95848.44;5031383;28;20017;-78
2021/03/01 10:59:35;;;;;;;7.30;3.13;;;;;;;24.30;34.25;95852.69;5031636;28;20482;-78
2021/03/01 11:02:01;;;;;;;8.30;3.97;;;;;;;24.40;34.05;95843.03;5025228;28;20421;-78
2021/03/01 11:04:27;;;;;;;10.43;3.08;;;;;;;24.39;34.41;95820.47;5029255;28;20500;-81
2021/03/01 11:06:53;;;;;;;8.18;3.00;;;;;;;24.55;33.94;95843.53;5031759;28;20163;-80
2021/03/01 11:09:18;;;;;;;6.75;2.70;;;;;;;24.15;33.78;95759.38;5032673;28;20084;-87
2021/03/01 11:11:45;;;;;;;6.38;2.83;;;;;;;24.34;34.05;95768.59;5014897;28;20060;-87
2021/03/01 11:14:11;;;;;;;7.45;3.30;;;;;;;24.77;32.00;95833.34;5018476;28;20510;-80
2021/03/01 11:16:37;;;;;;;7.70;3.13;;;;;;;24.47;32.99;95777.03;5030570;28;20021;-83
2021/03/01 11:19:03;;;;;;;7.50;2.90;;;;;;;24.89;33.51;95812.97;5020542;28;20832;-75
2021/03/01 11:21:29;;;;;;;7.50;3.38;;;;;;;24.15;33.28;95696.59;5027773;28;20028;-79
2021/03/01 11:23:54;;;;;;;6.20;2.50;;;;;;;24.26;32.97;95696.59;5024687;28;20029;-79
2021/03/01 11:26:20;;;;;;;9.68;3.33;;;;;;;25.21;32.96;95828.56;5029262;28;20025;-75
2021/03/01 11:28:45;;;;;;;6.80;3.10;;;;;;;25.07;32.66;95788.59;5028729;28;20025;-79
2021/03/01 11:31:11;;;;;;;8.20;3.17;;;;;;;24.87;32.57;95745.16;5028961;28;20417;-77
2021/03/01 11:33:36;;;;;;;5.97;2.75;;;;;;;25.41;32.32;95809.09;5028127;28;20021;-75
2021/03/01 11:36:02;;;;;;;5.95;2.85;;;;;;;25.40;32.61;95799.41;5026109;28;20512;-76